createdAt,value
2022-12-25T00:00:42.195Z,8.88
2022-12-25T00:03:08.866Z,8.87
2022-12-25T00:05:38.565Z,8.87
2022-12-25T00:08:06.077Z,8.85
2022-12-25T00:10:33.176Z,8.84
2022-12-25T00:12:59.716Z,8.83
2022-12-25T00:15:26.367Z,8.80
2022-12-25T00:17:52.920Z,8.77
2022-12-25T00:20:19.487Z,8.76
2022-12-25T00:22:46.042Z,8.73
2022-12-25T00:25:12.556Z,8.72
2022-12-25T00:27:39.488Z,8.70
2022-12-25T00:30:07.923Z,8.67
2022-12-25T00:32:37.627Z,8.65
2022-12-25T00:35:05.583Z,8.64
2022-12-25T00:37:32.123Z,8.60
2022-12-25T00:39:58.888Z,8.59
2022-12-25T00:42:27.012Z,8.55
2022-12-25T00:44:53.539Z,8.52
2022-12-25T00:47:20.192Z,8.49
2022-12-25T00:49:46.848Z,8.45
2022-12-25T00:52:13.639Z,8.44
2022-12-25T00:54:40.153Z,8.40
2022-12-25T00:57:06.738Z,8.39
2022-12-25T00:59:34.696Z,8.37
2022-12-25T01:02:21.700Z,8.39
2022-12-25T01:04:49.291Z,8.41
2022-12-25T01:07:18.885Z,8.40
2022-12-25T01:10:05.170Z,8.40
2022-12-25T01:12:36.013Z,8.39
2022-12-25T01:15:03.399Z,8.38
2022-12-25T01:17:29.915Z,8.36
2022-12-25T01:19:56.520Z,8.37
2022-12-25T01:22:23.213Z,8.37
2022-12-25T01:24:49.841Z,8.36
2022-12-25T01:27:16.937Z,8.36
2022-12-25T01:29:43.527Z,8.39
2022-12-25T01:32:10.177Z,8.37
2022-12-25T01:34:36.899Z,8.37
2022-12-25T01:37:03.506Z,8.35
2022-12-25T01:39:30.472Z,8.35
2022-12-25T01:41:57.260Z,8.36
2022-12-25T01:44:35.803Z,8.36
2022-12-25T01:47:06.622Z,8.36
2022-12-25T01:49:37.484Z,8.37
2022-12-25T01:52:25.219Z,8.37
2022-12-25T01:54:55.987Z,8.34
2022-12-25T01:57:27.105Z,8.32
2022-12-25T01:59:55.201Z,8.28
2022-12-25T02:02:22.832Z,8.29
2022-12-25T02:04:59.701Z,8.29
2022-12-25T02:07:28.371Z,8.26
2022-12-25T02:09:55.075Z,8.28
2022-12-25T02:12:30.495Z,8.26
2022-12-25T02:15:04.840Z,8.26
2022-12-25T02:17:41.778Z,8.28
2022-12-25T02:20:41.909Z,8.27
2022-12-25T02:23:26.474Z,8.27
2022-12-25T02:26:05.195Z,8.25
2022-12-25T02:28:53.462Z,8.23
2022-12-25T02:31:26.005Z,8.20
2022-12-25T02:34:05.199Z,8.17
2022-12-25T02:36:52.535Z,8.13
2022-12-25T02:39:43.834Z,8.13
2022-12-25T02:42:21.201Z,8.10
2022-12-25T02:45:09.806Z,8.09
2022-12-25T02:47:56.651Z,8.06
2022-12-25T02:50:44.309Z,8.01
2022-12-25T02:53:31.038Z,8.01
2022-12-25T02:56:17.435Z,8.02
2022-12-25T02:59:04.773Z,7.99
2022-12-25T03:01:53.371Z,7.97
2022-12-25T03:05:00.561Z,7.99
2022-12-25T03:07:29.771Z,7.97
2022-12-25T03:10:21.583Z,7.96
2022-12-25T03:12:56.351Z,7.96
2022-12-25T03:15:42.043Z,7.97
2022-12-25T03:18:14.826Z,7.94
2022-12-25T03:21:00.143Z,7.95
2022-12-25T03:23:50.284Z,7.95
2022-12-25T03:26:36.345Z,7.96
2022-12-25T03:29:03.639Z,7.94
2022-12-25T03:31:53.565Z,7.92
2022-12-25T03:34:51.389Z,7.93
2022-12-25T03:37:44.077Z,7.90
2022-12-25T03:40:41.500Z,7.89
2022-12-25T03:43:51.491Z,7.85
2022-12-25T03:46:42.178Z,7.84
2022-12-25T03:49:50.125Z,7.81
2022-12-25T03:52:38.226Z,7.76
2022-12-25T03:55:27.694Z,7.71
2022-12-25T03:58:13.109Z,7.71
2022-12-25T04:00:58.187Z,7.66
2022-12-25T04:03:43.250Z,7.61
2022-12-25T04:06:28.348Z,7.66
2022-12-25T04:09:13.211Z,7.66
2022-12-25T04:12:02.531Z,7.65
2022-12-25T04:14:48.098Z,7.62
2022-12-25T04:17:33.206Z,7.61
2022-12-25T04:20:18.336Z,7.59
2022-12-25T04:23:03.352Z,7.59
2022-12-25T04:25:55.778Z,7.60
2022-12-25T04:28:45.099Z,7.57
2022-12-25T04:31:30.538Z,7.58
2022-12-25T04:34:15.633Z,7.60
2022-12-25T04:36:42.237Z,7.60
2022-12-25T04:39:09.770Z,7.62
2022-12-25T04:41:36.527Z,7.62
2022-12-25T04:44:03.191Z,7.64
2022-12-25T04:46:29.880Z,7.62
2022-12-25T04:48:56.904Z,7.65
2022-12-25T04:51:25.728Z,7.65
2022-12-25T04:53:53.611Z,7.66
2022-12-25T04:56:21.848Z,7.68
2022-12-25T04:58:49.095Z,7.70
2022-12-25T05:01:15.930Z,7.72
2022-12-25T05:03:43.254Z,7.74
2022-12-25T05:06:09.911Z,7.73
2022-12-25T05:08:37.051Z,7.74
2022-12-25T05:11:12.516Z,7.75
2022-12-25T05:13:39.613Z,7.76
2022-12-25T05:16:08.815Z,7.78
2022-12-25T05:18:36.036Z,7.79
2022-12-25T05:21:03.009Z,7.81
2022-12-25T05:23:29.497Z,7.84
2022-12-25T05:25:56.518Z,7.83
2022-12-25T05:28:23.085Z,7.85
2022-12-25T05:30:49.766Z,7.86
2022-12-25T05:33:16.402Z,7.87
2022-12-25T05:35:43.004Z,7.87
2022-12-25T05:38:09.598Z,7.88
2022-12-25T05:40:40.089Z,7.84
2022-12-25T05:43:07.429Z,7.89
2022-12-25T05:45:34.062Z,7.89
2022-12-25T05:48:00.606Z,7.87
2022-12-25T05:50:27.156Z,7.90
2022-12-25T05:52:53.679Z,7.91
2022-12-25T05:55:20.212Z,7.91
2022-12-25T05:57:46.730Z,7.91
2022-12-25T06:00:13.535Z,7.91
2022-12-25T06:02:40.305Z,7.92
2022-12-25T06:05:07.495Z,7.93
2022-12-25T06:07:34.023Z,7.92
2022-12-25T06:10:00.560Z,7.94
2022-12-25T06:12:27.060Z,7.93
2022-12-25T06:14:53.594Z,7.93
2022-12-25T06:17:20.104Z,7.94
2022-12-25T06:19:46.619Z,7.94
2022-12-25T06:22:13.107Z,7.94
2022-12-25T06:24:40.739Z,7.94
2022-12-25T06:27:07.215Z,7.94
2022-12-25T06:29:33.719Z,7.92
2022-12-25T06:32:00.295Z,7.93
2022-12-25T06:34:27.191Z,7.93
2022-12-25T06:36:53.830Z,7.91
2022-12-25T06:39:21.449Z,7.92
2022-12-25T06:41:48.551Z,7.91
2022-12-25T06:44:15.031Z,7.89
2022-12-25T06:46:41.548Z,7.92
2022-12-25T06:49:08.084Z,7.89
2022-12-25T06:51:34.639Z,7.89
2022-12-25T06:54:04.331Z,7.89
2022-12-25T06:56:32.166Z,7.91
2022-12-25T06:59:06.259Z,7.89
2022-12-25T07:01:35.711Z,7.90
2022-12-25T07:04:05.824Z,7.91
2022-12-25T07:06:32.398Z,7.90
2022-12-25T07:08:59.185Z,7.90
2022-12-25T07:11:25.995Z,7.92
2022-12-25T07:13:52.584Z,7.91
2022-12-25T07:16:19.279Z,7.90
2022-12-25T07:18:45.889Z,7.90
2022-12-25T07:21:15.600Z,7.89
2022-12-25T07:23:42.960Z,7.89
2022-12-25T07:26:11.231Z,7.89
2022-12-25T07:28:37.827Z,7.87
2022-12-25T07:31:06.834Z,7.86
2022-12-25T07:33:34.046Z,7.85
2022-12-25T07:36:01.031Z,7.86
2022-12-25T07:38:27.594Z,7.85
2022-12-25T07:40:54.232Z,7.85
2022-12-25T07:43:20.863Z,7.84
2022-12-25T07:45:47.426Z,7.84
2022-12-25T07:48:16.864Z,7.84
2022-12-25T07:50:43.843Z,7.83
2022-12-25T07:53:10.432Z,7.82
2022-12-25T07:55:36.972Z,7.81
2022-12-25T07:58:03.504Z,7.80
2022-12-25T08:00:33.678Z,7.81
2022-12-25T08:03:00.344Z,7.83
2022-12-25T08:05:27.153Z,7.81
2022-12-25T08:07:57.536Z,7.81
2022-12-25T08:10:24.637Z,7.81
2022-12-25T08:12:52.091Z,7.82
2022-12-25T08:15:18.752Z,7.80
2022-12-25T08:17:45.269Z,7.80
2022-12-25T08:20:12.269Z,7.79
2022-12-25T08:22:38.814Z,7.78
2022-12-25T08:25:05.405Z,7.74
2022-12-25T08:27:31.954Z,7.76
2022-12-25T08:29:58.508Z,7.74
2022-12-25T08:32:25.026Z,7.76
2022-12-25T08:34:51.672Z,7.75
2022-12-25T08:37:18.184Z,7.76
2022-12-25T08:39:44.652Z,7.77
2022-12-25T08:42:11.196Z,7.78
2022-12-25T08:44:37.767Z,7.78
2022-12-25T08:47:04.508Z,7.79
2022-12-25T08:49:31.069Z,7.80
2022-12-25T08:51:57.694Z,7.81
2022-12-25T08:54:24.871Z,7.83
2022-12-25T08:56:51.439Z,7.84
2022-12-25T08:59:17.919Z,7.85
2022-12-25T09:01:44.498Z,7.87
2022-12-25T09:04:11.198Z,7.86
2022-12-25T09:06:37.688Z,7.88
2022-12-25T09:09:04.202Z,7.87
2022-12-25T09:11:30.764Z,7.88
2022-12-25T09:13:57.243Z,7.89
2022-12-25T09:16:23.944Z,7.89
2022-12-25T09:18:50.606Z,7.90
2022-12-25T09:21:18.300Z,7.92
2022-12-25T09:23:45.332Z,7.94
2022-12-25T09:26:14.381Z,7.94
2022-12-25T09:28:46.554Z,7.98
2022-12-25T09:31:17.123Z,7.99
2022-12-25T09:33:45.047Z,8.01
2022-12-25T09:36:11.934Z,8.03
2022-12-25T09:38:38.552Z,8.03
2022-12-25T09:41:07.843Z,8.06
2022-12-25T09:43:40.745Z,8.08
2022-12-25T09:46:13.998Z,8.10
2022-12-25T09:48:45.712Z,8.12
2022-12-25T09:51:17.205Z,8.13
2022-12-25T09:53:55.273Z,8.15
2022-12-25T09:56:25.972Z,8.19
2022-12-25T09:58:53.823Z,8.20
2022-12-25T10:01:41.161Z,8.22
2022-12-25T10:04:19.364Z,8.23
2022-12-25T10:06:56.785Z,8.25
2022-12-25T10:10:02.229Z,8.29
2022-12-25T10:13:16.794Z,8.32
2022-12-25T10:16:01.347Z,8.34
2022-12-25T10:18:52.529Z,8.37
2022-12-25T10:21:20.601Z,8.40
2022-12-25T10:23:49.722Z,8.44
2022-12-25T10:26:22.903Z,8.46
2022-12-25T10:29:13.890Z,8.48
2022-12-25T10:31:41.915Z,8.54
2022-12-25T10:34:12.142Z,8.56
2022-12-25T10:36:38.707Z,8.58
2022-12-25T10:39:05.249Z,8.63
2022-12-25T10:41:42.895Z,8.65
2022-12-25T10:44:20.765Z,8.70
2022-12-25T10:46:52.688Z,8.73
2022-12-25T10:49:23.103Z,8.75
2022-12-25T10:51:50.283Z,8.80
2022-12-25T10:54:21.339Z,8.84
2022-12-25T10:57:08.258Z,8.87
2022-12-25T10:59:41.627Z,8.90
2022-12-25T11:02:27.158Z,8.95
2022-12-25T11:05:14.246Z,8.98
2022-12-25T11:07:54.474Z,9.03
2022-12-25T11:10:30.060Z,9.08
2022-12-25T11:12:58.133Z,9.10
2022-12-25T11:15:45.565Z,9.14
2022-12-25T11:18:54.255Z,9.19
2022-12-25T11:21:26.920Z,9.22
2022-12-25T11:24:04.535Z,9.26
2022-12-25T11:26:36.927Z,9.31
2022-12-25T11:29:22.997Z,9.35
2022-12-25T11:31:51.213Z,9.37
2022-12-25T11:34:24.854Z,9.42
2022-12-25T11:36:54.604Z,9.47
2022-12-25T11:39:36.332Z,9.52
2022-12-25T11:42:08.936Z,9.55
2022-12-25T11:44:54.759Z,9.90
2022-12-25T11:47:37.173Z,9.90
2022-12-25T11:50:07.781Z,9.85
2022-12-25T11:52:38.936Z,9.83
2022-12-25T11:55:16.093Z,9.84
2022-12-25T11:57:47.258Z,9.88
2022-12-25T12:00:16.208Z,9.89
2022-12-25T12:02:53.003Z,9.91
2022-12-25T12:05:25.589Z,9.94
2022-12-25T12:08:02.192Z,9.98
2022-12-25T12:10:31.603Z,10.02
2022-12-25T12:13:15.627Z,10.05
2022-12-25T12:15:44.894Z,10.09
2022-12-25T12:18:26.700Z,10.14
2022-12-25T12:21:04.454Z,10.17
2022-12-25T12:23:34.763Z,10.19
2022-12-25T12:26:02.905Z,10.21
2022-12-25T12:28:43.640Z,10.26
2022-12-25T12:31:10.581Z,10.29
2022-12-25T12:33:44.002Z,10.30
2022-12-25T12:36:14.490Z,10.35
2022-12-25T12:38:43.609Z,10.39
2022-12-25T12:41:12.616Z,10.41
2022-12-25T12:44:00.896Z,10.44
2022-12-25T12:46:38.742Z,10.45
2022-12-25T12:49:28.578Z,10.46
2022-12-25T12:52:06.201Z,10.48
2022-12-25T12:54:32.938Z,10.48
2022-12-25T12:57:21.506Z,10.48
2022-12-25T12:59:48.044Z,10.51
2022-12-25T13:02:36.781Z,10.53
2022-12-25T13:05:18.145Z,10.56
2022-12-25T13:07:54.033Z,10.58
2022-12-25T13:10:26.104Z,10.59
2022-12-25T13:12:55.230Z,10.62
2022-12-25T13:15:24.762Z,10.63
2022-12-25T13:17:51.580Z,10.69
2022-12-25T13:20:24.686Z,10.71
2022-12-25T13:22:53.052Z,10.74
2022-12-25T13:25:22.657Z,10.73
2022-12-25T13:27:59.582Z,10.76
2022-12-25T13:30:26.595Z,10.77
2022-12-25T13:32:53.475Z,10.78
2022-12-25T13:35:22.861Z,10.80
2022-12-25T13:37:49.921Z,10.81
2022-12-25T13:40:27.049Z,10.81
2022-12-25T13:43:00.455Z,10.81
2022-12-25T13:45:30.130Z,10.80
2022-12-25T13:47:57.415Z,10.82
2022-12-25T13:50:32.972Z,10.82
2022-12-25T13:53:12.634Z,10.83
2022-12-25T13:55:41.329Z,10.83
2022-12-25T13:58:20.356Z,10.84
2022-12-25T14:00:49.824Z,10.85
2022-12-25T14:03:25.881Z,10.86
2022-12-25T14:06:04.353Z,10.86
2022-12-25T14:08:33.836Z,10.86
2022-12-25T14:11:06.196Z,10.86
2022-12-25T14:13:37.596Z,10.83
2022-12-25T14:16:05.153Z,10.85
2022-12-25T14:18:32.489Z,10.85
2022-12-25T14:21:01.647Z,10.84
2022-12-25T14:23:40.245Z,10.84
2022-12-25T14:26:07.097Z,10.83
2022-12-25T14:28:34.534Z,10.82
2022-12-25T14:31:02.635Z,10.81
2022-12-25T14:33:36.594Z,10.80
2022-12-25T14:36:03.393Z,10.78
2022-12-25T14:38:40.952Z,10.77
2022-12-25T14:41:34.389Z,10.76
2022-12-25T14:44:03.551Z,10.75
2022-12-25T14:46:32.798Z,10.73
2022-12-25T14:49:25.379Z,10.71
2022-12-25T14:51:52.052Z,10.70
2022-12-25T14:54:22.339Z,10.69
2022-12-25T14:56:51.992Z,10.67
2022-12-25T14:59:21.591Z,10.65
2022-12-25T15:01:55.738Z,10.62
2022-12-25T15:04:23.857Z,10.62
2022-12-25T15:06:56.851Z,10.59
2022-12-25T15:09:24.003Z,10.57
2022-12-25T15:11:52.292Z,10.57
2022-12-25T15:14:19.158Z,10.53
2022-12-25T15:16:48.755Z,10.50
2022-12-25T15:19:38.256Z,10.48
2022-12-25T15:22:06.008Z,10.46
2022-12-25T15:24:32.566Z,10.43
2022-12-25T15:27:00.754Z,10.41
2022-12-25T15:30:00.242Z,10.38
2022-12-25T15:32:21.066Z,10.35
2022-12-25T15:34:49.867Z,10.30
2022-12-25T15:37:17.996Z,10.26
2022-12-25T15:39:44.724Z,10.23
2022-12-25T15:42:19.344Z,10.20
2022-12-25T15:44:46.187Z,10.17
2022-12-25T15:47:14.216Z,10.14
2022-12-25T15:49:41.501Z,10.11
2022-12-25T15:52:12.325Z,10.07
2022-12-25T15:54:38.824Z,10.05
2022-12-25T15:57:07.471Z,10.03
2022-12-25T15:59:34.234Z,10.00
2022-12-25T16:02:01.676Z,9.96
2022-12-25T16:04:31.287Z,9.94
2022-12-25T16:06:59.368Z,9.91
2022-12-25T16:09:27.538Z,9.88
2022-12-25T16:11:54.044Z,9.86
2022-12-25T16:14:21.880Z,9.83
2022-12-25T16:16:48.478Z,9.78
2022-12-25T16:19:15.053Z,9.76
2022-12-25T16:21:44.561Z,9.72
2022-12-25T16:24:11.857Z,9.71
2022-12-25T16:26:38.675Z,9.72
2022-12-25T16:29:07.390Z,9.69
2022-12-25T16:31:34.860Z,9.66
2022-12-25T16:34:01.752Z,9.66
2022-12-25T16:36:28.663Z,9.69
2022-12-25T16:38:55.235Z,9.66
2022-12-25T16:41:21.924Z,9.69
2022-12-25T16:43:48.815Z,9.67
2022-12-25T16:46:18.505Z,9.65
2022-12-25T16:48:45.155Z,9.65
2022-12-25T16:51:14.930Z,9.64
2022-12-25T16:53:41.543Z,9.65
2022-12-25T16:56:10.999Z,9.63
2022-12-25T16:58:37.868Z,9.63
2022-12-25T17:01:06.799Z,9.63
2022-12-25T17:03:33.493Z,9.63
2022-12-25T17:06:00.207Z,9.61
2022-12-25T17:08:26.771Z,9.58
2022-12-25T17:10:53.488Z,9.57
2022-12-25T17:13:20.077Z,9.56
2022-12-25T17:15:50.411Z,9.56
2022-12-25T17:18:21.767Z,9.55
2022-12-25T17:20:53.156Z,9.53
2022-12-25T17:23:20.869Z,9.53
2022-12-25T17:25:47.375Z,9.52
2022-12-25T17:28:14.154Z,9.49
2022-12-25T17:30:40.757Z,9.46
2022-12-25T17:33:07.329Z,9.44
2022-12-25T17:35:37.100Z,9.40
2022-12-25T17:38:03.811Z,9.38
2022-12-25T17:40:30.357Z,9.37
2022-12-25T17:42:56.876Z,9.35
2022-12-25T17:45:23.526Z,9.33
2022-12-25T17:47:54.910Z,9.33
2022-12-25T17:50:22.283Z,9.32
2022-12-25T17:52:48.830Z,9.31
2022-12-25T17:55:15.356Z,9.30
2022-12-25T17:57:41.848Z,9.28
2022-12-25T18:00:08.776Z,9.29
2022-12-25T18:02:35.698Z,9.26
2022-12-25T18:05:02.306Z,9.27
2022-12-25T18:07:28.816Z,9.25
2022-12-25T18:09:55.433Z,9.22
2022-12-25T18:12:22.099Z,9.22
2022-12-25T18:14:48.664Z,9.21
2022-12-25T18:17:15.219Z,9.21
2022-12-25T18:19:41.736Z,9.20
2022-12-25T18:22:08.295Z,9.20
2022-12-25T18:24:34.826Z,9.17
2022-12-25T18:27:01.358Z,9.16
2022-12-25T18:29:27.887Z,9.13
2022-12-25T18:31:55.588Z,9.13
2022-12-25T18:34:23.312Z,9.13
2022-12-25T18:36:49.828Z,9.11
2022-12-25T18:39:16.392Z,9.13
2022-12-25T18:42:01.595Z,9.11
2022-12-25T18:44:30.393Z,9.10
2022-12-25T18:46:56.921Z,9.10
2022-12-25T18:49:23.442Z,9.10
2022-12-25T18:51:50.159Z,9.09
2022-12-25T18:54:16.800Z,9.09
2022-12-25T18:56:43.380Z,9.09
2022-12-25T18:59:09.932Z,9.07
2022-12-25T19:01:36.613Z,9.04
2022-12-25T19:04:05.391Z,9.03
2022-12-25T19:06:33.389Z,9.01
2022-12-25T19:09:00.086Z,8.99
2022-12-25T19:11:26.613Z,8.97
2022-12-25T19:13:53.142Z,8.92
2022-12-25T19:16:19.771Z,8.84
2022-12-25T19:18:46.384Z,8.78
2022-12-25T19:21:13.093Z,8.75
2022-12-25T19:23:39.903Z,8.74
2022-12-25T19:26:08.126Z,8.73
2022-12-25T19:28:35.329Z,8.68
2022-12-25T19:31:03.039Z,8.73
2022-12-25T19:33:33.064Z,8.68
2022-12-25T19:36:11.803Z,8.58
2022-12-25T19:38:38.643Z,8.52
2022-12-25T19:41:13.776Z,8.53
2022-12-25T19:43:42.290Z,8.55
2022-12-25T19:46:16.493Z,8.56
2022-12-25T19:48:43.208Z,8.56
2022-12-25T19:51:17.405Z,8.54
2022-12-25T19:53:44.295Z,8.49
2022-12-25T19:56:10.879Z,8.47
2022-12-25T19:58:37.488Z,8.46
2022-12-25T20:01:08.317Z,8.46
2022-12-25T20:03:38.837Z,8.49
2022-12-25T20:06:23.275Z,8.49
2022-12-25T20:08:52.690Z,8.49
2022-12-25T20:11:20.037Z,8.50
2022-12-25T20:13:46.656Z,8.50
2022-12-25T20:16:13.570Z,8.52
2022-12-25T20:18:40.465Z,8.54
2022-12-25T20:21:11.058Z,8.53
2022-12-25T20:23:37.806Z,8.55
2022-12-25T20:26:05.466Z,8.54
2022-12-25T20:28:34.761Z,8.55
2022-12-25T20:31:12.457Z,8.55
2022-12-25T20:33:39.003Z,8.60
2022-12-25T20:36:06.821Z,8.62
2022-12-25T20:38:33.867Z,8.63
2022-12-25T20:41:26.248Z,8.63
2022-12-25T20:43:50.812Z,8.66
2022-12-25T20:46:17.397Z,8.67
2022-12-25T20:48:44.355Z,8.66
2022-12-25T20:51:15.774Z,8.67
2022-12-25T20:53:42.527Z,8.66
2022-12-25T20:56:11.018Z,8.65
2022-12-25T20:58:37.943Z,8.66
2022-12-25T21:01:07.024Z,8.66
2022-12-25T21:03:34.486Z,8.67
2022-12-25T21:06:01.522Z,8.68
2022-12-25T21:08:28.834Z,8.68
2022-12-25T21:11:00.658Z,8.66
2022-12-25T21:13:33.126Z,8.65
2022-12-25T21:16:00.399Z,8.65
2022-12-25T21:18:28.277Z,8.62
2022-12-25T21:20:57.416Z,8.61
2022-12-25T21:23:26.628Z,8.61
2022-12-25T21:25:54.000Z,8.64
2022-12-25T21:28:21.708Z,8.65
2022-12-25T21:30:48.450Z,8.65
2022-12-25T21:33:34.090Z,8.65
2022-12-25T21:36:11.305Z,8.65
2022-12-25T21:38:38.964Z,8.64
2022-12-25T21:41:08.483Z,8.62
2022-12-25T21:43:36.070Z,8.62
2022-12-25T21:46:04.280Z,8.62
2022-12-25T21:48:32.078Z,8.60
2022-12-25T21:51:25.096Z,8.56
2022-12-25T21:53:51.742Z,8.57
2022-12-25T21:56:18.274Z,8.55
2022-12-25T21:58:44.830Z,8.53
2022-12-25T22:01:11.889Z,8.52
2022-12-25T22:03:38.553Z,8.52
2022-12-25T22:06:23.770Z,8.53
2022-12-25T22:08:50.352Z,8.55
2022-12-25T22:11:35.552Z,8.55
2022-12-25T22:14:20.770Z,8.55
2022-12-25T22:17:26.826Z,8.55
2022-12-25T22:19:53.645Z,8.55
2022-12-25T22:22:23.485Z,8.55
2022-12-25T22:24:51.597Z,8.54
2022-12-25T22:27:18.992Z,8.54
2022-12-25T22:29:45.564Z,8.54
2022-12-25T22:32:13.070Z,8.55
2022-12-25T22:34:39.723Z,8.55
2022-12-25T22:37:08.227Z,8.55
2022-12-25T22:39:35.674Z,8.54
2022-12-25T22:42:02.371Z,8.52
2022-12-25T22:44:30.896Z,8.51
2022-12-25T22:46:57.842Z,8.53
2022-12-25T22:49:25.444Z,8.53
2022-12-25T22:51:53.142Z,8.54
2022-12-25T22:54:21.242Z,8.53
2022-12-25T22:56:50.961Z,8.51
2022-12-25T22:59:20.601Z,8.50
2022-12-25T23:01:47.502Z,8.52
2022-12-25T23:04:14.149Z,8.52
2022-12-25T23:06:41.153Z,8.51
2022-12-25T23:09:08.990Z,8.51
2022-12-25T23:11:36.099Z,8.49
2022-12-25T23:14:21.187Z,8.48
2022-12-25T23:16:47.717Z,8.47
2022-12-25T23:19:32.824Z,8.47
2022-12-25T23:22:18.262Z,8.45
2022-12-25T23:25:03.621Z,8.43
2022-12-25T23:27:30.162Z,8.43
2022-12-25T23:29:56.713Z,8.39
2022-12-25T23:32:25.988Z,8.38
2022-12-25T23:34:52.768Z,8.36
2022-12-25T23:37:19.834Z,8.36
2022-12-25T23:39:47.477Z,8.35
2022-12-25T23:42:14.022Z,8.34
2022-12-25T23:44:40.533Z,8.31
2022-12-25T23:47:07.116Z,8.31
2022-12-25T23:49:33.749Z,8.32
2022-12-25T23:52:00.294Z,8.32
2022-12-25T23:54:29.781Z,8.29
2022-12-25T23:56:57.584Z,8.33
2022-12-25T23:59:25.765Z,8.34
